Kansas Settlement, Arizona
Current Conditions -  °F | °C
As of 3:51 AM on Saturday 20 Dec 2014 (Local Time) from KSAD Reporting Station
Clear Clear  
Wind Chill: 28°   Ceiling: Unl
Heat Index: 33°   Visibility: 10mi
Dew Point: 31°   Wind: 6mph
Humidity: 92%   Direction: 150°SSE
Pressure: 30.15"   Gusts: NA
Location:  32.5598°N, 110.08°W
Report Text: KSAD 201051Z AUTO 15005KT 10SM CLR 01/M01 A3015 RMK AO2 SLP206 T00061006
Loading
Personal Weather Stations






























Interactive Weather Map New forecast layout! Learn more

10-Day Weather Forecast

Advertisements
Track Severe Weather on mobile